sensor_id;sensor_type;location;lat;lon;timestamp;temperature;humidity
15115;DHT22;7658;51.456;7.622;2023-05-16T00:01:21;10.80;99.90
15115;DHT22;7658;51.456;7.622;2023-05-16T00:03:47;10.70;99.90
15115;DHT22;7658;51.456;7.622;2023-05-16T00:06:13;10.60;99.90
15115;DHT22;7658;51.456;7.622;2023-05-16T00:08:39;10.50;99.90
15115;DHT22;7658;51.456;7.622;2023-05-16T00:11:05;10.50;99.90
15115;DHT22;7658;51.456;7.622;2023-05-16T00:13:31;10.40;99.90
15115;DHT22;7658;51.456;7.622;2023-05-16T00:15:57;10.40;99.90
15115;DHT22;7658;51.456;7.622;2023-05-16T00:18:23;10.30;99.90
15115;DHT22;7658;51.456;7.622;2023-05-16T00:20:51;10.30;99.90
15115;DHT22;7658;51.456;7.622;2023-05-16T00:23:18;10.30;99.90
15115;DHT22;7658;51.456;7.622;2023-05-16T00:25:44;10.30;99.90
15115;DHT22;7658;51.456;7.622;2023-05-16T00:28:11;10.20;99.90
15115;DHT22;7658;51.456;7.622;2023-05-16T00:30:37;10.20;99.90
15115;DHT22;7658;51.456;7.622;2023-05-16T00:33:02;10.10;99.90
15115;DHT22;7658;51.456;7.622;2023-05-16T00:35:28;10.10;99.90
15115;DHT22;7658;51.456;7.622;2023-05-16T00:37:54;10.10;99.90
15115;DHT22;7658;51.456;7.622;2023-05-16T00:40:20;10.00;99.90
15115;DHT22;7658;51.456;7.622;2023-05-16T00:42:46;10.00;99.90
15115;DHT22;7658;51.456;7.622;2023-05-16T00:45:12;10.00;99.90
15115;DHT22;7658;51.456;7.622;2023-05-16T00:47:38;10.10;99.90
15115;DHT22;7658;51.456;7.622;2023-05-16T00:50:04;10.20;99.90
15115;DHT22;7658;51.456;7.622;2023-05-16T00:52:30;10.20;99.90
15115;DHT22;7658;51.456;7.622;2023-05-16T00:54:58;10.10;99.90
15115;DHT22;7658;51.456;7.622;2023-05-16T00:57:23;10.20;99.90
15115;DHT22;7658;51.456;7.622;2023-05-16T00:59:50;10.10;99.90
15115;DHT22;7658;51.456;7.622;2023-05-16T01:02:16;10.10;99.90
15115;DHT22;7658;51.456;7.622;2023-05-16T01:04:42;10.10;99.90
15115;DHT22;7658;51.456;7.622;2023-05-16T01:07:09;10.00;99.90
15115;DHT22;7658;51.456;7.622;2023-05-16T01:09:34;10.00;99.90
15115;DHT22;7658;51.456;7.622;2023-05-16T01:14:58;10.00;99.90
15115;DHT22;7658;51.456;7.622;2023-05-16T01:20:45;9.90;99.90
15115;DHT22;7658;51.456;7.622;2023-05-16T01:28:12;9.80;99.90
15115;DHT22;7658;51.456;7.622;2023-05-16T01:30:39;9.80;99.90
15115;DHT22;7658;51.456;7.622;2023-05-16T01:33:08;9.70;99.90
15115;DHT22;7658;51.456;7.622;2023-05-16T01:35:45;9.80;99.90
15115;DHT22;7658;51.456;7.622;2023-05-16T01:40:59;9.70;99.90
15115;DHT22;7658;51.456;7.622;2023-05-16T01:43:33;9.70;99.90
15115;DHT22;7658;51.456;7.622;2023-05-16T01:46:14;9.80;99.90
15115;DHT22;7658;51.456;7.622;2023-05-16T01:51:20;9.70;99.90
15115;DHT22;7658;51.456;7.622;2023-05-16T01:53:49;9.70;99.90
15115;DHT22;7658;51.456;7.622;2023-05-16T01:56:16;9.70;99.90
15115;DHT22;7658;51.456;7.622;2023-05-16T01:58:43;9.60;99.90
15115;DHT22;7658;51.456;7.622;2023-05-16T02:01:09;9.70;99.90
15115;DHT22;7658;51.456;7.622;2023-05-16T02:03:36;9.60;99.90
15115;DHT22;7658;51.456;7.622;2023-05-16T02:06:02;9.60;99.90
15115;DHT22;7658;51.456;7.622;2023-05-16T02:08:28;9.60;99.90
15115;DHT22;7658;51.456;7.622;2023-05-16T02:10:53;9.40;99.90
15115;DHT22;7658;51.456;7.622;2023-05-16T02:13:19;9.40;99.90
15115;DHT22;7658;51.456;7.622;2023-05-16T02:15:45;9.30;99.90
15115;DHT22;7658;51.456;7.622;2023-05-16T02:18:11;9.30;99.90
15115;DHT22;7658;51.456;7.622;2023-05-16T02:20:37;9.20;99.90
15115;DHT22;7658;51.456;7.622;2023-05-16T02:23:04;9.10;99.90
15115;DHT22;7658;51.456;7.622;2023-05-16T02:25:30;9.20;99.90
15115;DHT22;7658;51.456;7.622;2023-05-16T02:27:55;9.10;99.90
15115;DHT22;7658;51.456;7.622;2023-05-16T02:30:21;9.20;99.90
15115;DHT22;7658;51.456;7.622;2023-05-16T02:32:47;9.10;99.90
15115;DHT22;7658;51.456;7.622;2023-05-16T02:35:13;9.10;99.90
15115;DHT22;7658;51.456;7.622;2023-05-16T02:37:40;9.00;99.90
15115;DHT22;7658;51.456;7.622;2023-05-16T02:40:06;8.90;99.90
15115;DHT22;7658;51.456;7.622;2023-05-16T02:42:33;8.90;99.90
15115;DHT22;7658;51.456;7.622;2023-05-16T02:44:59;8.70;99.90
15115;DHT22;7658;51.456;7.622;2023-05-16T02:47:25;8.70;99.90
15115;DHT22;7658;51.456;7.622;2023-05-16T02:49:51;8.60;99.90
15115;DHT22;7658;51.456;7.622;2023-05-16T02:52:20;8.50;99.90
15115;DHT22;7658;51.456;7.622;2023-05-16T02:54:46;8.50;99.90
15115;DHT22;7658;51.456;7.622;2023-05-16T02:57:11;8.40;99.90
15115;DHT22;7658;51.456;7.622;2023-05-16T02:59:37;8.40;99.90
15115;DHT22;7658;51.456;7.622;2023-05-16T03:02:03;8.40;99.90
15115;DHT22;7658;51.456;7.622;2023-05-16T03:04:29;8.40;99.90
15115;DHT22;7658;51.456;7.622;2023-05-16T03:06:55;8.30;99.90
15115;DHT22;7658;51.456;7.622;2023-05-16T03:09:21;8.40;99.90
15115;DHT22;7658;51.456;7.622;2023-05-16T03:11:47;8.40;99.90
15115;DHT22;7658;51.456;7.622;2023-05-16T03:14:13;8.40;99.90
15115;DHT22;7658;51.456;7.622;2023-05-16T03:16:39;8.30;99.90
15115;DHT22;7658;51.456;7.622;2023-05-16T03:19:07;8.30;99.90
15115;DHT22;7658;51.456;7.622;2023-05-16T03:21:33;8.40;99.90
15115;DHT22;7658;51.456;7.622;2023-05-16T03:24:03;8.40;99.90
15115;DHT22;7658;51.456;7.622;2023-05-16T03:26:29;8.40;99.90
15115;DHT22;7658;51.456;7.622;2023-05-16T03:28:55;8.40;99.90
15115;DHT22;7658;51.456;7.622;2023-05-16T03:31:21;8.30;99.90
15115;DHT22;7658;51.456;7.622;2023-05-16T03:33:47;8.30;99.90
15115;DHT22;7658;51.456;7.622;2023-05-16T03:36:12;8.30;99.90
15115;DHT22;7658;51.456;7.622;2023-05-16T03:38:39;8.40;99.90
15115;DHT22;7658;51.456;7.622;2023-05-16T03:41:05;8.30;99.90
15115;DHT22;7658;51.456;7.622;2023-05-16T03:43:30;8.30;99.90
15115;DHT22;7658;51.456;7.622;2023-05-16T03:45:56;8.30;99.90
15115;DHT22;7658;51.456;7.622;2023-05-16T03:48:22;8.30;99.90
15115;DHT22;7658;51.456;7.622;2023-05-16T03:50:48;8.30;99.90
15115;DHT22;7658;51.456;7.622;2023-05-16T03:53:13;8.30;99.90
15115;DHT22;7658;51.456;7.622;2023-05-16T03:55:39;8.30;99.90
15115;DHT22;7658;51.456;7.622;2023-05-16T03:58:05;8.30;99.90
15115;DHT22;7658;51.456;7.622;2023-05-16T04:00:32;8.20;99.90
15115;DHT22;7658;51.456;7.622;2023-05-16T04:02:59;8.30;99.90
15115;DHT22;7658;51.456;7.622;2023-05-16T04:05:24;8.30;99.90
15115;DHT22;7658;51.456;7.622;2023-05-16T04:07:50;8.30;99.90
15115;DHT22;7658;51.456;7.622;2023-05-16T04:10:16;8.20;99.90
15115;DHT22;7658;51.456;7.622;2023-05-16T04:12:42;8.20;99.90
15115;DHT22;7658;51.456;7.622;2023-05-16T04:15:09;8.10;99.90
15115;DHT22;7658;51.456;7.622;2023-05-16T04:17:34;8.10;99.90
15115;DHT22;7658;51.456;7.622;2023-05-16T04:20:01;8.10;99.90
15115;DHT22;7658;51.456;7.622;2023-05-16T04:22:27;8.10;99.90
15115;DHT22;7658;51.456;7.622;2023-05-16T04:24:53;8.10;99.90
15115;DHT22;7658;51.456;7.622;2023-05-16T04:27:19;8.10;99.90
15115;DHT22;7658;51.456;7.622;2023-05-16T04:29:45;8.00;99.90
15115;DHT22;7658;51.456;7.622;2023-05-16T04:32:11;8.00;99.90
15115;DHT22;7658;51.456;7.622;2023-05-16T04:34:37;8.00;99.90
15115;DHT22;7658;51.456;7.622;2023-05-16T04:37:04;7.90;99.90
15115;DHT22;7658;51.456;7.622;2023-05-16T04:39:30;7.90;99.90
15115;DHT22;7658;51.456;7.622;2023-05-16T04:41:56;7.80;99.90
15115;DHT22;7658;51.456;7.622;2023-05-16T04:44:24;7.80;99.90
15115;DHT22;7658;51.456;7.622;2023-05-16T04:46:50;7.80;99.90
15115;DHT22;7658;51.456;7.622;2023-05-16T04:49:18;7.70;99.90
15115;DHT22;7658;51.456;7.622;2023-05-16T04:51:44;7.80;99.90
15115;DHT22;7658;51.456;7.622;2023-05-16T04:54:09;7.70;99.90
15115;DHT22;7658;51.456;7.622;2023-05-16T04:56:36;7.60;99.90
15115;DHT22;7658;51.456;7.622;2023-05-16T04:59:01;7.60;99.90
15115;DHT22;7658;51.456;7.622;2023-05-16T05:01:28;7.60;99.90
15115;DHT22;7658;51.456;7.622;2023-05-16T05:03:54;7.50;99.90
15115;DHT22;7658;51.456;7.622;2023-05-16T05:06:20;7.60;99.90
15115;DHT22;7658;51.456;7.622;2023-05-16T05:08:46;7.50;99.90
15115;DHT22;7658;51.456;7.622;2023-05-16T05:11:12;7.40;99.90
15115;DHT22;7658;51.456;7.622;2023-05-16T05:13:38;7.40;99.90
15115;DHT22;7658;51.456;7.622;2023-05-16T05:16:04;7.50;99.90
15115;DHT22;7658;51.456;7.622;2023-05-16T05:18:30;7.60;99.90
15115;DHT22;7658;51.456;7.622;2023-05-16T05:20:56;7.60;99.90
15115;DHT22;7658;51.456;7.622;2023-05-16T05:23:22;7.50;99.90
15115;DHT22;7658;51.456;7.622;2023-05-16T05:25:49;7.60;99.90
15115;DHT22;7658;51.456;7.622;2023-05-16T05:28:14;7.60;99.90
15115;DHT22;7658;51.456;7.622;2023-05-16T05:30:40;7.60;99.90
15115;DHT22;7658;51.456;7.622;2023-05-16T05:33:06;7.60;99.90
15115;DHT22;7658;51.456;7.622;2023-05-16T05:35:32;7.60;99.90
15115;DHT22;7658;51.456;7.622;2023-05-16T05:37:58;7.70;99.90
15115;DHT22;7658;51.456;7.622;2023-05-16T05:40:24;7.70;99.90
15115;DHT22;7658;51.456;7.622;2023-05-16T05:42:50;7.80;99.90
15115;DHT22;7658;51.456;7.622;2023-05-16T05:45:15;7.70;99.90
15115;DHT22;7658;51.456;7.622;2023-05-16T05:47:42;7.80;99.90
15115;DHT22;7658;51.456;7.622;2023-05-16T05:50:08;7.80;99.90
15115;DHT22;7658;51.456;7.622;2023-05-16T05:52:36;7.70;99.90
15115;DHT22;7658;51.456;7.622;2023-05-16T05:55:02;7.90;99.90
15115;DHT22;7658;51.456;7.622;2023-05-16T05:57:28;8.10;99.90
15115;DHT22;7658;51.456;7.622;2023-05-16T05:59:54;8.00;99.90
15115;DHT22;7658;51.456;7.622;2023-05-16T06:02:20;8.10;99.90
15115;DHT22;7658;51.456;7.622;2023-05-16T06:04:46;8.10;99.90
15115;DHT22;7658;51.456;7.622;2023-05-16T06:07:11;8.10;99.90
15115;DHT22;7658;51.456;7.622;2023-05-16T06:09:39;8.10;99.90
15115;DHT22;7658;51.456;7.622;2023-05-16T06:12:05;8.20;99.90
15115;DHT22;7658;51.456;7.622;2023-05-16T06:14:31;8.30;99.90
15115;DHT22;7658;51.456;7.622;2023-05-16T06:16:57;8.40;99.90
15115;DHT22;7658;51.456;7.622;2023-05-16T06:19:23;8.50;99.90
15115;DHT22;7658;51.456;7.622;2023-05-16T06:21:48;8.50;99.90
15115;DHT22;7658;51.456;7.622;2023-05-16T06:24:14;8.40;99.90
15115;DHT22;7658;51.456;7.622;2023-05-16T06:26:40;8.40;99.90
15115;DHT22;7658;51.456;7.622;2023-05-16T06:29:06;8.50;99.90
15115;DHT22;7658;51.456;7.622;2023-05-16T06:31:31;8.60;99.90
15115;DHT22;7658;51.456;7.622;2023-05-16T06:33:57;8.60;99.90
15115;DHT22;7658;51.456;7.622;2023-05-16T06:36:23;8.70;99.90
15115;DHT22;7658;51.456;7.622;2023-05-16T06:38:49;8.70;99.90
15115;DHT22;7658;51.456;7.622;2023-05-16T06:41:15;8.80;99.90
15115;DHT22;7658;51.456;7.622;2023-05-16T06:43:41;8.80;99.90
15115;DHT22;7658;51.456;7.622;2023-05-16T06:46:06;8.80;99.90
15115;DHT22;7658;51.456;7.622;2023-05-16T06:48:32;8.80;99.90
15115;DHT22;7658;51.456;7.622;2023-05-16T06:50:58;8.80;99.90
15115;DHT22;7658;51.456;7.622;2023-05-16T06:53:24;8.90;99.90
15115;DHT22;7658;51.456;7.622;2023-05-16T06:55:50;8.90;99.90
15115;DHT22;7658;51.456;7.622;2023-05-16T06:58:16;9.10;99.90
15115;DHT22;7658;51.456;7.622;2023-05-16T07:00:42;9.10;99.90
15115;DHT22;7658;51.456;7.622;2023-05-16T07:03:08;9.10;99.90
15115;DHT22;7658;51.456;7.622;2023-05-16T07:05:34;9.10;99.90
15115;DHT22;7658;51.456;7.622;2023-05-16T07:08:00;9.00;99.90
15115;DHT22;7658;51.456;7.622;2023-05-16T07:10:25;8.90;99.90
15115;DHT22;7658;51.456;7.622;2023-05-16T07:12:51;8.90;99.90
15115;DHT22;7658;51.456;7.622;2023-05-16T07:15:17;9.00;99.90
15115;DHT22;7658;51.456;7.622;2023-05-16T07:17:43;9.00;99.90
15115;DHT22;7658;51.456;7.622;2023-05-16T07:20:09;9.00;99.90
15115;DHT22;7658;51.456;7.622;2023-05-16T07:22:38;9.10;99.90
15115;DHT22;7658;51.456;7.622;2023-05-16T07:25:04;9.10;99.90
15115;DHT22;7658;51.456;7.622;2023-05-16T07:27:30;9.20;99.90
15115;DHT22;7658;51.456;7.622;2023-05-16T07:29:57;9.30;99.90
15115;DHT22;7658;51.456;7.622;2023-05-16T07:32:22;9.60;99.90
15115;DHT22;7658;51.456;7.622;2023-05-16T07:34:48;9.80;99.90
15115;DHT22;7658;51.456;7.622;2023-05-16T07:37:14;10.00;99.90
15115;DHT22;7658;51.456;7.622;2023-05-16T07:39:41;10.30;99.90
15115;DHT22;7658;51.456;7.622;2023-05-16T07:42:07;10.40;99.90
15115;DHT22;7658;51.456;7.622;2023-05-16T07:44:33;10.40;99.90
15115;DHT22;7658;51.456;7.622;2023-05-16T07:47:00;10.50;99.90
15115;DHT22;7658;51.456;7.622;2023-05-16T07:49:26;10.40;99.90
15115;DHT22;7658;51.456;7.622;2023-05-16T07:51:52;10.30;99.90
15115;DHT22;7658;51.456;7.622;2023-05-16T07:54:17;10.20;99.90
15115;DHT22;7658;51.456;7.622;2023-05-16T07:56:43;10.10;99.90
15115;DHT22;7658;51.456;7.622;2023-05-16T07:59:09;9.90;99.90
15115;DHT22;7658;51.456;7.622;2023-05-16T08:01:35;9.70;99.90
15115;DHT22;7658;51.456;7.622;2023-05-16T08:04:01;9.50;99.90
15115;DHT22;7658;51.456;7.622;2023-05-16T08:06:27;9.50;99.90
15115;DHT22;7658;51.456;7.622;2023-05-16T08:08:54;9.50;99.90
15115;DHT22;7658;51.456;7.622;2023-05-16T08:11:20;9.60;99.90
15115;DHT22;7658;51.456;7.622;2023-05-16T08:13:47;9.80;99.90
15115;DHT22;7658;51.456;7.622;2023-05-16T08:16:13;10.00;99.90
15115;DHT22;7658;51.456;7.622;2023-05-16T08:18:39;10.30;64.90
15115;DHT22;7658;51.456;7.622;2023-05-16T08:21:05;10.50;99.90
15115;DHT22;7658;51.456;7.622;2023-05-16T08:23:31;10.90;99.90
15115;DHT22;7658;51.456;7.622;2023-05-16T08:25:56;11.60;99.90
15115;DHT22;7658;51.456;7.622;2023-05-16T08:28:23;12.10;1.00
15115;DHT22;7658;51.456;7.622;2023-05-16T08:30:49;12.30;99.90
15115;DHT22;7658;51.456;7.622;2023-05-16T08:33:14;12.50;99.90
15115;DHT22;7658;51.456;7.622;2023-05-16T08:35:44;13.20;1.00
15115;DHT22;7658;51.456;7.622;2023-05-16T08:38:10;13.60;99.90
15115;DHT22;7658;51.456;7.622;2023-05-16T08:40:35;13.50;99.90
15115;DHT22;7658;51.456;7.622;2023-05-16T08:43:01;13.50;1.00
15115;DHT22;7658;51.456;7.622;2023-05-16T08:45:29;14.10;1.00
15115;DHT22;7658;51.456;7.622;2023-05-16T08:47:56;14.70;99.90
15115;DHT22;7658;51.456;7.622;2023-05-16T08:50:22;15.20;99.90
15115;DHT22;7658;51.456;7.622;2023-05-16T08:52:51;15.70;1.00
15115;DHT22;7658;51.456;7.622;2023-05-16T08:55:19;15.50;1.00
15115;DHT22;7658;51.456;7.622;2023-05-16T08:57:48;15.40;1.00
15115;DHT22;7658;51.456;7.622;2023-05-16T09:00:16;15.20;99.90
15115;DHT22;7658;51.456;7.622;2023-05-16T09:02:44;15.00;99.90
15115;DHT22;7658;51.456;7.622;2023-05-16T09:05:12;14.40;99.90
15115;DHT22;7658;51.456;7.622;2023-05-16T09:07:38;13.20;1.00
15115;DHT22;7658;51.456;7.622;2023-05-16T09:10:06;12.70;1.00
15115;DHT22;7658;51.456;7.622;2023-05-16T09:12:33;12.30;99.90
15115;DHT22;7658;51.456;7.622;2023-05-16T09:15:03;12.00;1.00
15115;DHT22;7658;51.456;7.622;2023-05-16T09:17:45;11.90;99.90
15115;DHT22;7658;51.456;7.622;2023-05-16T09:20:16;11.90;1.00
15115;DHT22;7658;51.456;7.622;2023-05-16T09:22:53;12.00;99.90
15115;DHT22;7658;51.456;7.622;2023-05-16T09:25:20;12.80;99.90
15115;DHT22;7658;51.456;7.622;2023-05-16T09:27:47;14.00;87.90
15115;DHT22;7658;51.456;7.622;2023-05-16T09:30:14;14.20;99.90
15115;DHT22;7658;51.456;7.622;2023-05-16T09:32:44;14.00;99.90
15115;DHT22;7658;51.456;7.622;2023-05-16T09:35:14;13.40;1.00
15115;DHT22;7658;51.456;7.622;2023-05-16T09:37:45;13.20;1.00
15115;DHT22;7658;51.456;7.622;2023-05-16T09:40:11;13.80;1.00
15115;DHT22;7658;51.456;7.622;2023-05-16T09:42:37;14.70;99.90
15115;DHT22;7658;51.456;7.622;2023-05-16T09:45:03;15.10;92.60
15115;DHT22;7658;51.456;7.622;2023-05-16T09:47:29;14.90;99.90
15115;DHT22;7658;51.456;7.622;2023-05-16T09:49:55;14.70;1.00
15115;DHT22;7658;51.456;7.622;2023-05-16T09:52:21;14.40;8.10
15115;DHT22;7658;51.456;7.622;2023-05-16T09:54:47;14.20;1.00
15115;DHT22;7658;51.456;7.622;2023-05-16T09:57:18;14.20;1.00
15115;DHT22;7658;51.456;7.622;2023-05-16T09:59:44;14.00;95.30
15115;DHT22;7658;51.456;7.622;2023-05-16T10:02:12;13.60;1.00
15115;DHT22;7658;51.456;7.622;2023-05-16T10:04:38;13.30;1.00
15115;DHT22;7658;51.456;7.622;2023-05-16T10:07:04;13.00;1.00
15115;DHT22;7658;51.456;7.622;2023-05-16T10:09:34;12.80;99.90
15115;DHT22;7658;51.456;7.622;2023-05-16T10:12:02;12.70;1.00
15115;DHT22;7658;51.456;7.622;2023-05-16T10:14:30;13.20;1.00
15115;DHT22;7658;51.456;7.622;2023-05-16T10:16:58;13.30;1.00
15115;DHT22;7658;51.456;7.622;2023-05-16T10:19:31;13.50;1.00
15115;DHT22;7658;51.456;7.622;2023-05-16T10:21:59;14.00;99.90
15115;DHT22;7658;51.456;7.622;2023-05-16T10:24:54;14.80;1.00
15115;DHT22;7658;51.456;7.622;2023-05-16T10:27:16;15.10;99.90
15115;DHT22;7658;51.456;7.622;2023-05-16T10:29:43;15.20;99.90
15115;DHT22;7658;51.456;7.622;2023-05-16T10:32:12;15.10;1.00
15115;DHT22;7658;51.456;7.622;2023-05-16T10:34:41;14.70;1.00
15115;DHT22;7658;51.456;7.622;2023-05-16T10:37:08;14.30;99.90
15115;DHT22;7658;51.456;7.622;2023-05-16T10:39:35;14.20;51.60
15115;DHT22;7658;51.456;7.622;2023-05-16T10:42:10;14.00;1.00
15115;DHT22;7658;51.456;7.622;2023-05-16T10:44:38;13.80;1.00
15115;DHT22;7658;51.456;7.622;2023-05-16T10:47:06;13.80;1.00
15115;DHT22;7658;51.456;7.622;2023-05-16T10:49:32;13.80;99.90
15115;DHT22;7658;51.456;7.622;2023-05-16T10:52:11;13.70;99.90
15115;DHT22;7658;51.456;7.622;2023-05-16T10:54:42;13.70;1.00
15115;DHT22;7658;51.456;7.622;2023-05-16T10:57:22;13.60;14.90
15115;DHT22;7658;51.456;7.622;2023-05-16T10:59:50;13.40;1.00
15115;DHT22;7658;51.456;7.622;2023-05-16T11:02:32;13.30;1.00
15115;DHT22;7658;51.456;7.622;2023-05-16T11:05:02;13.50;99.90
15115;DHT22;7658;51.456;7.622;2023-05-16T11:07:34;14.00;1.00
15115;DHT22;7658;51.456;7.622;2023-05-16T11:10:09;14.40;99.90
15115;DHT22;7658;51.456;7.622;2023-05-16T11:17:45;15.60;1.00
15115;DHT22;7658;51.456;7.622;2023-05-16T11:20:36;15.60;99.90
15115;DHT22;7658;51.456;7.622;2023-05-16T11:25:57;14.80;1.00
15115;DHT22;7658;51.456;7.622;2023-05-16T11:28:25;14.60;1.00
15115;DHT22;7658;51.456;7.622;2023-05-16T11:30:56;14.50;99.90
15115;DHT22;7658;51.456;7.622;2023-05-16T11:33:24;14.40;1.00
15115;DHT22;7658;51.456;7.622;2023-05-16T11:36:06;14.50;1.00
15115;DHT22;7658;51.456;7.622;2023-05-16T11:38:33;14.70;99.90
15115;DHT22;7658;51.456;7.622;2023-05-16T11:41:06;14.90;21.20
15115;DHT22;7658;51.456;7.622;2023-05-16T11:43:41;15.30;1.00
15115;DHT22;7658;51.456;7.622;2023-05-16T11:46:14;15.60;1.00
15115;DHT22;7658;51.456;7.622;2023-05-16T11:48:40;15.90;1.00
15115;DHT22;7658;51.456;7.622;2023-05-16T11:51:07;15.80;1.00
15115;DHT22;7658;51.456;7.622;2023-05-16T11:53:33;15.50;99.90
15115;DHT22;7658;51.456;7.622;2023-05-16T11:55:59;15.20;1.00
15115;DHT22;7658;51.456;7.622;2023-05-16T11:58:27;15.20;1.00
15115;DHT22;7658;51.456;7.622;2023-05-16T12:00:53;14.80;99.90
15115;DHT22;7658;51.456;7.622;2023-05-16T12:03:19;14.50;26.60
15115;DHT22;7658;51.456;7.622;2023-05-16T12:05:55;14.30;79.90
15115;DHT22;7658;51.456;7.622;2023-05-16T12:08:25;14.00;1.00
15115;DHT22;7658;51.456;7.622;2023-05-16T12:10:52;13.90;1.00
15115;DHT22;7658;51.456;7.622;2023-05-16T12:13:19;13.80;1.00
15115;DHT22;7658;51.456;7.622;2023-05-16T12:15:46;13.70;1.00
15115;DHT22;7658;51.456;7.622;2023-05-16T12:18:12;13.50;1.00
15115;DHT22;7658;51.456;7.622;2023-05-16T12:20:39;13.50;99.90
15115;DHT22;7658;51.456;7.622;2023-05-16T12:23:16;13.40;28.30
15115;DHT22;7658;51.456;7.622;2023-05-16T12:25:48;13.30;44.50
15115;DHT22;7658;51.456;7.622;2023-05-16T12:28:15;13.20;99.90
15115;DHT22;7658;51.456;7.622;2023-05-16T12:30:43;13.30;99.90
15115;DHT22;7658;51.456;7.622;2023-05-16T12:33:10;13.40;48.00
15115;DHT22;7658;51.456;7.622;2023-05-16T12:35:41;13.40;99.90
15115;DHT22;7658;51.456;7.622;2023-05-16T12:38:08;13.60;1.00
15115;DHT22;7658;51.456;7.622;2023-05-16T12:40:39;14.00;99.90
15115;DHT22;7658;51.456;7.622;2023-05-16T12:43:12;14.50;99.90
15115;DHT22;7658;51.456;7.622;2023-05-16T12:45:39;14.70;99.90
15115;DHT22;7658;51.456;7.622;2023-05-16T12:48:11;15.20;1.00
15115;DHT22;7658;51.456;7.622;2023-05-16T12:50:39;15.50;1.00
15115;DHT22;7658;51.456;7.622;2023-05-16T12:53:10;15.60;1.00
15115;DHT22;7658;51.456;7.622;2023-05-16T12:55:37;16.00;1.00
15115;DHT22;7658;51.456;7.622;2023-05-16T12:58:03;16.50;99.90
15115;DHT22;7658;51.456;7.622;2023-05-16T13:00:29;16.60;99.90
15115;DHT22;7658;51.456;7.622;2023-05-16T13:02:56;16.10;2.20
15115;DHT22;7658;51.456;7.622;2023-05-16T13:05:22;15.90;1.00
15115;DHT22;7658;51.456;7.622;2023-05-16T13:07:48;16.30;1.00
15115;DHT22;7658;51.456;7.622;2023-05-16T13:10:16;15.90;1.00
15115;DHT22;7658;51.456;7.622;2023-05-16T13:12:43;15.60;99.90
15115;DHT22;7658;51.456;7.622;2023-05-16T13:15:10;15.40;99.90
15115;DHT22;7658;51.456;7.622;2023-05-16T13:17:37;15.80;1.00
15115;DHT22;7658;51.456;7.622;2023-05-16T13:20:04;16.60;99.90
15115;DHT22;7658;51.456;7.622;2023-05-16T13:22:36;16.90;1.00
15115;DHT22;7658;51.456;7.622;2023-05-16T13:25:03;16.80;99.90
15115;DHT22;7658;51.456;7.622;2023-05-16T13:27:29;16.50;99.90
15115;DHT22;7658;51.456;7.622;2023-05-16T13:29:55;16.00;99.90
15115;DHT22;7658;51.456;7.622;2023-05-16T13:32:21;15.60;99.90
15115;DHT22;7658;51.456;7.622;2023-05-16T13:34:46;15.20;51.90
15115;DHT22;7658;51.456;7.622;2023-05-16T13:37:12;14.70;1.00
15115;DHT22;7658;51.456;7.622;2023-05-16T13:39:38;14.50;43.30
15115;DHT22;7658;51.456;7.622;2023-05-16T13:42:04;14.40;99.90
15115;DHT22;7658;51.456;7.622;2023-05-16T13:44:30;15.00;99.90
15115;DHT22;7658;51.456;7.622;2023-05-16T13:46:55;15.70;99.90
15115;DHT22;7658;51.456;7.622;2023-05-16T13:49:24;16.30;57.10
15115;DHT22;7658;51.456;7.622;2023-05-16T13:51:51;16.80;13.00
15115;DHT22;7658;51.456;7.622;2023-05-16T13:54:18;16.60;1.00
15115;DHT22;7658;51.456;7.622;2023-05-16T13:56:44;16.50;1.00
15115;DHT22;7658;51.456;7.622;2023-05-16T13:59:10;15.90;1.00
15115;DHT22;7658;51.456;7.622;2023-05-16T14:01:35;15.40;1.00
15115;DHT22;7658;51.456;7.622;2023-05-16T14:04:02;15.10;1.00
15115;DHT22;7658;51.456;7.622;2023-05-16T14:06:28;14.90;1.00
15115;DHT22;7658;51.456;7.622;2023-05-16T14:08:53;14.80;1.00
15115;DHT22;7658;51.456;7.622;2023-05-16T14:11:19;14.70;1.00
15115;DHT22;7658;51.456;7.622;2023-05-16T14:13:50;14.80;1.00
15115;DHT22;7658;51.456;7.622;2023-05-16T14:16:17;15.20;1.00
15115;DHT22;7658;51.456;7.622;2023-05-16T14:18:43;15.70;1.00
15115;DHT22;7658;51.456;7.622;2023-05-16T14:21:08;15.90;1.00
15115;DHT22;7658;51.456;7.622;2023-05-16T14:23:34;15.70;1.00
15115;DHT22;7658;51.456;7.622;2023-05-16T14:26:00;15.60;1.00
15115;DHT22;7658;51.456;7.622;2023-05-16T14:28:27;15.60;1.00
15115;DHT22;7658;51.456;7.622;2023-05-16T14:30:53;15.50;1.00
15115;DHT22;7658;51.456;7.622;2023-05-16T14:33:19;15.40;1.00
15115;DHT22;7658;51.456;7.622;2023-05-16T14:35:44;15.30;99.90
15115;DHT22;7658;51.456;7.622;2023-05-16T14:38:13;15.30;99.90
15115;DHT22;7658;51.456;7.622;2023-05-16T14:40:39;15.30;99.90
15115;DHT22;7658;51.456;7.622;2023-05-16T14:43:05;15.70;67.00
15115;DHT22;7658;51.456;7.622;2023-05-16T14:45:31;16.50;1.00
15115;DHT22;7658;51.456;7.622;2023-05-16T14:47:56;16.80;1.00
15115;DHT22;7658;51.456;7.622;2023-05-16T14:50:22;16.70;1.00
15115;DHT22;7658;51.456;7.622;2023-05-16T14:52:48;16.20;1.00
15115;DHT22;7658;51.456;7.622;2023-05-16T14:55:14;15.80;1.00
15115;DHT22;7658;51.456;7.622;2023-05-16T14:57:40;15.50;1.00
15115;DHT22;7658;51.456;7.622;2023-05-16T15:00:06;15.20;1.00
15115;DHT22;7658;51.456;7.622;2023-05-16T15:02:33;15.00;1.00
15115;DHT22;7658;51.456;7.622;2023-05-16T15:04:59;14.90;1.00
15115;DHT22;7658;51.456;7.622;2023-05-16T15:07:24;14.90;1.00
15115;DHT22;7658;51.456;7.622;2023-05-16T15:09:50;14.80;1.00
15115;DHT22;7658;51.456;7.622;2023-05-16T15:12:16;14.60;1.00
15115;DHT22;7658;51.456;7.622;2023-05-16T15:14:41;14.40;50.60
15115;DHT22;7658;51.456;7.622;2023-05-16T15:17:07;14.40;1.00
15115;DHT22;7658;51.456;7.622;2023-05-16T15:19:33;14.20;99.90
15115;DHT22;7658;51.456;7.622;2023-05-16T15:21:59;14.20;1.00
15115;DHT22;7658;51.456;7.622;2023-05-16T15:24:24;14.10;99.90
15115;DHT22;7658;51.456;7.622;2023-05-16T15:26:50;14.10;90.60
15115;DHT22;7658;51.456;7.622;2023-05-16T15:29:16;14.00;99.90
15115;DHT22;7658;51.456;7.622;2023-05-16T15:31:44;13.90;1.00
15115;DHT22;7658;51.456;7.622;2023-05-16T15:34:10;13.90;1.00
15115;DHT22;7658;51.456;7.622;2023-05-16T15:36:36;13.80;1.00
15115;DHT22;7658;51.456;7.622;2023-05-16T15:39:02;13.90;1.00
15115;DHT22;7658;51.456;7.622;2023-05-16T15:41:28;13.90;1.00
15115;DHT22;7658;51.456;7.622;2023-05-16T15:43:54;13.90;48.20
15115;DHT22;7658;51.456;7.622;2023-05-16T15:46:20;13.90;99.90
15115;DHT22;7658;51.456;7.622;2023-05-16T15:48:45;13.90;99.90
15115;DHT22;7658;51.456;7.622;2023-05-16T15:51:11;13.80;1.00
15115;DHT22;7658;51.456;7.622;2023-05-16T15:53:38;13.80;63.10
15115;DHT22;7658;51.456;7.622;2023-05-16T15:56:04;13.80;99.90
15115;DHT22;7658;51.456;7.622;2023-05-16T15:58:30;13.80;99.90
15115;DHT22;7658;51.456;7.622;2023-05-16T16:00:56;13.80;99.90
15115;DHT22;7658;51.456;7.622;2023-05-16T16:03:22;13.80;1.00
15115;DHT22;7658;51.456;7.622;2023-05-16T16:05:49;13.70;14.70
15115;DHT22;7658;51.456;7.622;2023-05-16T16:08:20;13.70;99.90
15115;DHT22;7658;51.456;7.622;2023-05-16T16:10:49;13.70;1.00
15115;DHT22;7658;51.456;7.622;2023-05-16T16:13:19;13.70;57.10
15115;DHT22;7658;51.456;7.622;2023-05-16T16:15:47;13.70;1.00
15115;DHT22;7658;51.456;7.622;2023-05-16T16:18:13;13.60;99.90
15115;DHT22;7658;51.456;7.622;2023-05-16T16:20:38;13.50;99.90